createdAt,value
2022-11-20T00:01:26.917Z,101317.75
2022-11-20T00:03:56.005Z,101311.78
2022-11-20T00:06:23.768Z,101317.47
2022-11-20T00:08:51.599Z,101301.00
2022-11-20T00:11:21.520Z,101310.53
2022-11-20T00:13:50.858Z,101309.91
2022-11-20T00:16:20.513Z,101317.72
2022-11-20T00:18:48.215Z,101316.09
2022-11-20T00:21:22.106Z,101309.38
2022-11-20T00:23:50.574Z,101314.94
2022-11-20T00:26:19.998Z,101316.47
2022-11-20T00:28:52.475Z,101310.53
2022-11-20T00:31:19.797Z,101312.28
2022-11-20T00:33:47.317Z,101317.22
2022-11-20T00:36:17.267Z,101317.34
2022-11-20T00:38:45.269Z,101306.06
2022-11-20T00:41:15.283Z,101306.06
2022-11-20T00:43:42.917Z,101299.75
2022-11-20T00:46:18.882Z,101310.53
2022-11-20T00:48:46.321Z,101292.44
2022-11-20T00:51:21.806Z,101297.63
2022-11-20T00:53:48.927Z,101308.34
2022-11-20T00:56:18.227Z,101304.19
2022-11-20T00:58:47.628Z,101292.03
2022-11-20T01:03:47.675Z,101290.28
2022-11-20T01:06:20.398Z,101294.56
2022-11-20T01:08:48.399Z,101287.63
2022-11-20T01:11:18.147Z,101283.94
2022-11-20T01:13:46.667Z,101284.69
2022-11-20T01:16:34.950Z,101283.81
2022-11-20T01:19:04.667Z,101278.66
2022-11-20T01:21:34.407Z,101277.63
2022-11-20T01:24:02.027Z,101277.25
2022-11-20T01:26:31.334Z,101278.34
2022-11-20T01:28:59.761Z,101273.94
2022-11-20T01:31:29.252Z,101267.09
2022-11-20T01:33:59.599Z,101266.63
2022-11-20T01:36:29.000Z,101263.97
2022-11-20T01:38:58.721Z,101265.09
2022-11-20T01:41:49.158Z,101269.66
2022-11-20T01:44:19.872Z,101267.25
2022-11-20T01:47:00.366Z,101269.13
2022-11-20T01:49:36.939Z,101263.66
2022-11-20T01:52:24.119Z,101273.53
2022-11-20T01:55:14.188Z,101270.97
2022-11-20T01:57:42.046Z,101263.63
2022-11-20T02:00:12.891Z,101266.63
2022-11-20T02:02:43.194Z,101257.41
2022-11-20T02:05:17.901Z,101261.84
2022-11-20T02:07:46.367Z,101255.28
2022-11-20T02:10:13.644Z,101264.13
2022-11-20T02:12:59.634Z,101265.66
2022-11-20T02:15:30.219Z,101256.78
2022-11-20T02:17:57.958Z,101250.59
2022-11-20T02:20:25.173Z,101243.38
2022-11-20T02:22:59.218Z,101234.00
2022-11-20T02:25:28.728Z,101246.16
2022-11-20T02:27:56.183Z,101244.50
2022-11-20T02:30:23.287Z,101256.53
2022-11-20T02:32:50.290Z,101254.50
2022-11-20T02:35:20.185Z,101257.66
2022-11-20T02:37:51.185Z,101252.97
2022-11-20T02:40:18.273Z,101256.53
2022-11-20T02:42:45.291Z,101242.91
2022-11-20T02:45:13.128Z,101228.97
2022-11-20T02:47:40.479Z,101245.25
2022-11-20T02:50:07.593Z,101234.56
2022-11-20T02:52:34.590Z,101243.66
2022-11-20T02:55:01.750Z,101238.31
2022-11-20T02:57:28.974Z,101230.50
2022-11-20T02:59:56.003Z,101227.97
2022-11-20T03:02:23.003Z,101234.91
2022-11-20T03:04:50.381Z,101220.91
2022-11-20T03:07:17.373Z,101218.38
2022-11-20T03:09:44.457Z,101221.94
2022-11-20T03:12:11.413Z,101218.59
2022-11-20T03:14:38.467Z,101206.47
2022-11-20T03:17:05.487Z,101211.78
2022-11-20T03:19:32.700Z,101201.41
2022-11-20T03:22:01.027Z,101199.16
2022-11-20T03:24:28.278Z,101212.41
2022-11-20T03:26:55.317Z,101202.19
2022-11-20T03:29:22.472Z,101213.84
2022-11-20T03:31:49.655Z,101209.53
2022-11-20T03:34:16.623Z,101208.66
2022-11-20T03:36:44.066Z,101208.91
2022-11-20T03:39:11.273Z,101212.34
2022-11-20T03:41:41.087Z,101214.34
2022-11-20T03:44:10.503Z,101207.88
2022-11-20T03:46:37.772Z,101199.66
2022-11-20T03:49:05.123Z,101203.34
2022-11-20T03:51:34.345Z,101200.53
2022-11-20T03:54:06.874Z,101203.94
2022-11-20T03:56:36.849Z,101198.47
2022-11-20T03:59:05.329Z,101192.66
2022-11-20T04:01:35.126Z,101195.59
2022-11-20T04:04:02.590Z,101195.59
2022-11-20T04:06:38.380Z,101195.44
2022-11-20T04:09:07.064Z,101195.19
2022-11-20T04:11:36.194Z,101200.47
2022-11-20T04:14:06.844Z,101192.75
2022-11-20T04:16:36.585Z,101194.69
2022-11-20T04:19:06.260Z,101185.56
2022-11-20T04:21:33.624Z,101175.97
2022-11-20T04:24:00.704Z,101161.56
2022-11-20T04:26:29.131Z,101172.59
2022-11-20T04:28:56.838Z,101178.66
2022-11-20T04:31:29.425Z,101178.91
2022-11-20T04:33:59.665Z,101172.31
2022-11-20T04:36:28.018Z,101178.97
2022-11-20T04:38:57.836Z,101165.78
2022-11-20T04:41:28.057Z,101178.69
2022-11-20T04:44:00.429Z,101162.16
2022-11-20T04:46:28.666Z,101159.63
2022-11-20T04:48:55.840Z,101174.09
2022-11-20T04:51:23.317Z,101162.44
2022-11-20T04:53:50.672Z,101156.53
2022-11-20T04:56:17.704Z,101161.94
2022-11-20T04:58:44.724Z,101157.63
2022-11-20T05:01:14.676Z,101136.34
2022-11-20T05:03:43.503Z,101155.84
2022-11-20T05:06:13.220Z,101146.78
2022-11-20T05:08:41.069Z,101150.28
2022-11-20T05:11:16.433Z,101152.69
2022-11-20T05:13:43.497Z,101157.97
2022-11-20T05:16:13.450Z,101155.91
2022-11-20T05:18:41.281Z,101155.44
2022-11-20T05:21:09.936Z,101145.47
2022-11-20T05:23:37.186Z,101127.91
2022-11-20T05:26:05.781Z,101146.72
2022-11-20T05:28:33.599Z,101144.66
2022-11-20T05:31:08.385Z,101139.63
2022-11-20T05:33:36.388Z,101128.03
2022-11-20T05:36:05.006Z,101126.78
2022-11-20T05:38:32.484Z,101124.53
2022-11-20T05:41:05.516Z,101124.03
2022-11-20T05:43:34.720Z,101120.75
2022-11-20T05:46:02.691Z,101114.69
2022-11-20T05:48:29.803Z,101118.72
2022-11-20T05:50:59.323Z,101134.84
2022-11-20T05:53:27.801Z,101133.81
2022-11-20T05:55:59.700Z,101132.72
2022-11-20T05:58:26.796Z,101140.28
2022-11-20T06:00:53.822Z,101152.44
2022-11-20T06:03:20.953Z,101152.84
2022-11-20T06:05:48.444Z,101141.09
2022-11-20T06:08:15.581Z,101151.88
2022-11-20T06:10:42.615Z,101157.50
2022-11-20T06:13:09.661Z,101155.22
2022-11-20T06:15:36.689Z,101153.31
2022-11-20T06:18:03.808Z,101149.28
2022-11-20T06:20:30.784Z,101146.88
2022-11-20T06:22:57.734Z,101161.00
2022-11-20T06:25:24.782Z,101157.69
2022-11-20T06:27:52.803Z,101152.09
2022-11-20T06:30:19.894Z,101159.66
2022-11-20T06:32:46.948Z,101157.44
2022-11-20T06:35:13.981Z,101130.50
2022-11-20T06:37:41.056Z,101155.22
2022-11-20T06:40:08.968Z,101159.03
2022-11-20T06:42:35.971Z,101154.34
2022-11-20T06:45:03.102Z,101159.09
2022-11-20T06:47:30.035Z,101162.94
2022-11-20T06:49:57.017Z,101164.84
2022-11-20T06:52:23.978Z,101154.75
2022-11-20T06:54:51.007Z,101153.91
2022-11-20T06:57:18.165Z,101131.13
2022-11-20T06:59:45.155Z,101145.28
2022-11-20T07:02:13.106Z,101146.81
2022-11-20T07:04:40.596Z,101146.53
2022-11-20T07:07:07.617Z,101150.44
2022-11-20T07:09:35.121Z,101143.34
2022-11-20T07:12:02.172Z,101128.31
2022-11-20T07:14:29.758Z,101145.63
2022-11-20T07:16:57.162Z,101136.00
2022-11-20T07:19:24.291Z,101146.38
2022-11-20T07:21:51.719Z,101144.88
2022-11-20T07:24:18.739Z,101140.69
2022-11-20T07:26:52.305Z,101141.59
2022-11-20T07:29:19.692Z,101139.31
2022-11-20T07:31:47.256Z,101131.28
2022-11-20T07:34:14.384Z,101121.94
2022-11-20T07:36:41.386Z,101115.75
2022-11-20T07:39:08.414Z,101118.28
2022-11-20T07:41:35.486Z,101121.22
2022-11-20T07:44:02.529Z,101109.72
2022-11-20T07:46:29.595Z,101117.59
2022-11-20T07:48:56.596Z,101114.53
2022-11-20T07:51:24.378Z,101117.22
2022-11-20T07:53:53.230Z,101127.09
2022-11-20T07:56:20.905Z,101122.28
2022-11-20T07:58:51.029Z,101129.03
2022-11-20T08:01:18.490Z,101125.34
2022-11-20T08:03:45.471Z,101133.44
2022-11-20T08:06:12.543Z,101130.44
2022-11-20T08:08:43.101Z,101126.91
2022-11-20T08:11:29.070Z,101104.19
2022-11-20T08:14:14.672Z,101116.31
2022-11-20T08:16:46.798Z,101109.34
2022-11-20T08:19:15.377Z,101105.94
2022-11-20T08:21:43.039Z,101115.91
2022-11-20T08:24:11.274Z,101106.31
2022-11-20T08:26:40.126Z,101104.91
2022-11-20T08:29:07.552Z,101102.00
2022-11-20T08:31:34.676Z,101098.56
2022-11-20T08:34:06.289Z,101101.38
2022-11-20T08:36:36.408Z,101092.50
2022-11-20T08:39:04.442Z,101104.88
2022-11-20T08:41:33.937Z,101097.44
2022-11-20T08:44:06.246Z,101106.63
2022-11-20T08:46:42.109Z,101107.66
2022-11-20T08:49:11.769Z,101105.34
2022-11-20T08:51:39.399Z,101094.25
2022-11-20T08:54:07.594Z,101099.53
2022-11-20T08:56:35.412Z,101102.81
2022-11-20T08:59:20.573Z,101090.75
2022-11-20T09:01:49.782Z,101098.94
2022-11-20T09:04:17.039Z,101087.78
2022-11-20T09:06:44.371Z,101095.09
2022-11-20T09:09:11.637Z,101093.91
2022-11-20T09:11:38.870Z,101086.81
2022-11-20T09:14:06.174Z,101072.47
2022-11-20T09:16:33.425Z,101077.50
2022-11-20T09:19:40.647Z,101070.88
2022-11-20T09:21:49.382Z,101082.50
2022-11-20T09:24:16.989Z,101066.72
2022-11-20T09:26:44.275Z,101079.53
2022-11-20T09:29:11.953Z,101070.31
2022-11-20T09:31:39.350Z,101071.44
2022-11-20T09:34:06.364Z,101050.94
2022-11-20T09:36:33.386Z,101050.25
2022-11-20T09:39:00.611Z,101036.72
2022-11-20T09:41:52.213Z,101029.94
2022-11-20T09:44:31.706Z,101034.13
2022-11-20T09:47:38.925Z,101033.19
2022-11-20T09:50:37.552Z,101034.31
2022-11-20T09:53:47.376Z,101028.16
2022-11-20T09:56:18.395Z,101003.22
2022-11-20T09:59:00.925Z,101034.78
2022-11-20T10:01:33.296Z,101014.91
2022-11-20T10:04:11.897Z,101029.91
2022-11-20T10:07:30.829Z,101016.47
2022-11-20T10:09:54.641Z,101024.09
2022-11-20T10:13:04.539Z,101018.78
2022-11-20T10:15:37.101Z,101017.03
2022-11-20T10:18:12.764Z,101017.03
2022-11-20T10:20:52.315Z,101015.59
2022-11-20T10:23:49.111Z,100997.25
2022-11-20T10:26:29.452Z,100994.81
2022-11-20T10:29:11.344Z,100994.63
2022-11-20T10:31:49.557Z,100988.09
2022-11-20T10:34:23.950Z,100983.66
2022-11-20T10:36:59.421Z,100978.78
2022-11-20T10:39:44.947Z,100980.09
2022-11-20T10:42:17.085Z,100971.13
2022-11-20T10:45:05.808Z,100960.97
2022-11-20T10:47:34.169Z,100959.16
2022-11-20T10:50:10.877Z,100956.06
2022-11-20T10:53:15.265Z,100953.25
2022-11-20T10:55:55.048Z,100945.03
2022-11-20T10:58:41.331Z,100941.38
2022-11-20T11:01:23.501Z,100930.75
2022-11-20T11:03:53.309Z,100915.03
2022-11-20T11:06:35.472Z,100920.81
2022-11-20T11:09:10.118Z,100926.97
2022-11-20T11:11:39.398Z,100922.19
2022-11-20T11:14:14.948Z,100910.25
2022-11-20T11:16:54.746Z,100917.59
2022-11-20T11:19:22.788Z,100903.91
2022-11-20T11:21:56.129Z,100894.13
2022-11-20T11:24:41.619Z,100888.06
2022-11-20T11:27:18.846Z,100873.81
2022-11-20T11:29:49.276Z,100886.22
2022-11-20T11:32:21.973Z,100869.31
2022-11-20T11:35:07.724Z,100865.69
2022-11-20T11:37:38.054Z,100870.28
2022-11-20T11:40:24.690Z,100860.09
2022-11-20T11:42:58.941Z,100853.84
2022-11-20T11:45:26.794Z,100856.56
2022-11-20T11:47:56.795Z,100830.94
2022-11-20T11:50:29.123Z,100842.66
2022-11-20T11:53:12.760Z,100825.53
2022-11-20T11:55:57.465Z,100824.16
2022-11-20T11:58:33.275Z,100834.03
2022-11-20T12:01:09.441Z,100825.69
2022-11-20T12:03:42.958Z,100820.78
2022-11-20T12:06:15.607Z,100813.41
2022-11-20T12:08:58.767Z,100814.59
2022-11-20T12:11:34.835Z,100812.13
2022-11-20T12:14:24.996Z,100806.34
2022-11-20T12:16:53.775Z,100794.59
2022-11-20T12:19:21.414Z,100783.00
2022-11-20T12:22:07.958Z,100782.31
2022-11-20T12:24:50.300Z,100782.78
2022-11-20T12:27:45.346Z,100785.47
2022-11-20T12:30:17.895Z,100776.91
2022-11-20T12:32:51.214Z,100781.84
2022-11-20T12:35:51.087Z,100767.22
2022-11-20T12:38:43.068Z,100777.09
2022-11-20T12:42:00.137Z,100774.63
2022-11-20T12:44:52.144Z,100772.06
2022-11-20T12:47:31.144Z,100774.63
2022-11-20T12:50:53.364Z,100751.44
2022-11-20T12:53:41.697Z,100754.25
2022-11-20T12:56:11.540Z,100744.84
2022-11-20T12:59:08.586Z,100734.72
2022-11-20T13:01:56.948Z,100690.50
2022-11-20T13:04:45.177Z,100710.25
2022-11-20T13:07:17.083Z,100705.06
2022-11-20T13:09:50.815Z,100689.44
2022-11-20T13:12:26.510Z,100680.31
2022-11-20T13:15:05.292Z,100681.38
2022-11-20T13:17:44.158Z,100680.28
2022-11-20T13:20:18.086Z,100674.56
2022-11-20T13:22:50.568Z,100671.47
2022-11-20T13:25:29.547Z,100655.50
2022-11-20T13:27:58.939Z,100654.59
2022-11-20T13:30:28.160Z,100657.94
2022-11-20T13:32:56.771Z,100653.75
2022-11-20T13:35:32.640Z,100651.19
2022-11-20T13:38:09.120Z,100647.03
2022-11-20T13:40:53.020Z,100647.03
2022-11-20T13:43:39.777Z,100650.00
2022-11-20T13:46:09.352Z,100656.88
2022-11-20T13:48:44.606Z,100650.66
2022-11-20T13:51:39.982Z,100649.69
2022-11-20T13:54:25.614Z,100640.34
2022-11-20T13:57:28.572Z,100623.97
2022-11-20T14:00:11.845Z,100613.03
2022-11-20T14:02:39.487Z,100605.59
2022-11-20T14:05:07.069Z,100607.09
2022-11-20T14:07:42.134Z,100616.09
2022-11-20T14:10:31.663Z,100609.88
2022-11-20T14:13:10.591Z,100622.06
2022-11-20T14:15:44.655Z,100617.59
2022-11-20T14:18:15.479Z,100606.97
2022-11-20T14:20:43.678Z,100601.81
2022-11-20T14:23:11.718Z,100580.59
2022-11-20T14:25:43.650Z,100571.06
2022-11-20T14:28:26.698Z,100574.06
2022-11-20T14:30:54.697Z,100553.63
2022-11-20T14:33:25.779Z,100538.34
2022-11-20T14:35:58.469Z,100553.63
2022-11-20T14:38:28.242Z,100553.38
2022-11-20T14:40:55.557Z,100567.16
2022-11-20T14:43:31.621Z,100558.72
2022-11-20T14:46:05.189Z,100560.41
2022-11-20T14:48:40.415Z,100548.47
2022-11-20T14:51:11.409Z,100539.06
2022-11-20T14:53:38.662Z,100522.09
2022-11-20T14:56:05.768Z,100520.44
2022-11-20T14:58:34.750Z,100526.41
2022-11-20T15:01:07.994Z,100516.75
2022-11-20T15:03:37.582Z,100517.91
2022-11-20T15:06:06.588Z,100511.03
2022-11-20T15:08:34.979Z,100502.44
2022-11-20T15:11:02.894Z,100507.78
2022-11-20T15:13:35.523Z,100494.00
2022-11-20T15:16:04.662Z,100497.53
2022-11-20T15:18:42.440Z,100491.63
2022-11-20T15:21:14.730Z,100495.13
2022-11-20T15:23:42.128Z,100496.88
2022-11-20T15:26:15.431Z,100491.72
2022-11-20T15:28:51.273Z,100482.31
2022-11-20T15:31:22.970Z,100478.13
2022-11-20T15:33:50.446Z,100477.16
2022-11-20T15:36:18.349Z,100470.91
2022-11-20T15:38:45.474Z,100474.41
2022-11-20T15:41:12.568Z,100478.66
2022-11-20T15:43:39.817Z,100475.22
2022-11-20T15:46:20.294Z,100460.59
2022-11-20T15:48:52.712Z,100465.13
2022-11-20T15:51:30.268Z,100447.84
2022-11-20T15:53:57.870Z,100453.25
2022-11-20T15:56:25.468Z,100445.44
2022-11-20T15:58:52.751Z,100442.09
2022-11-20T16:01:23.083Z,100436.16
2022-11-20T16:03:50.260Z,100427.47
2022-11-20T16:06:17.400Z,100431.00
2022-11-20T16:08:44.996Z,100423.34
2022-11-20T16:11:17.027Z,100414.81
2022-11-20T16:14:02.526Z,100411.41
2022-11-20T16:16:31.120Z,100393.41
2022-11-20T16:18:58.581Z,100389.34
2022-11-20T16:21:32.235Z,100390.38
2022-11-20T16:24:00.905Z,100395.41
2022-11-20T16:26:28.746Z,100391.16
2022-11-20T16:28:56.103Z,100386.97
2022-11-20T16:31:23.300Z,100384.41
2022-11-20T16:33:55.554Z,100370.72
2022-11-20T16:36:25.022Z,100372.56
2022-11-20T16:38:57.206Z,100359.81
2022-11-20T16:41:26.647Z,100367.88
2022-11-20T16:43:58.209Z,100365.31
2022-11-20T16:46:27.726Z,100351.84
2022-11-20T16:48:57.512Z,100343.31
2022-11-20T16:51:25.422Z,100340.06
2022-11-20T16:53:53.542Z,100339.19
2022-11-20T16:56:22.625Z,100333.47
2022-11-20T16:58:51.322Z,100338.63
2022-11-20T17:01:21.417Z,100314.81
2022-11-20T17:04:08.711Z,100315.03
2022-11-20T17:06:41.543Z,100324.44
2022-11-20T17:09:09.581Z,100319.34
2022-11-20T17:11:37.333Z,100314.34
2022-11-20T17:14:07.267Z,100313.44
2022-11-20T17:16:35.870Z,100309.31
2022-11-20T17:19:05.682Z,100312.72
2022-11-20T17:21:35.997Z,100319.63
2022-11-20T17:24:06.063Z,100314.41
2022-11-20T17:26:34.103Z,100313.50
2022-11-20T17:29:05.380Z,100315.25
2022-11-20T17:31:34.723Z,100309.38
2022-11-20T17:34:02.169Z,100312.81
2022-11-20T17:36:30.045Z,100307.63
2022-11-20T17:38:57.754Z,100297.28
2022-11-20T17:41:27.383Z,100301.59
2022-11-20T17:43:59.437Z,100298.16
2022-11-20T17:46:29.163Z,100300.72
2022-11-20T17:48:56.797Z,100310.16
2022-11-20T17:51:29.172Z,100314.53
2022-11-20T17:54:01.906Z,100304.94
2022-11-20T17:56:52.294Z,100312.94
2022-11-20T17:59:19.570Z,100312.94
2022-11-20T18:01:46.999Z,100308.81
2022-11-20T18:04:14.297Z,100313.75
2022-11-20T18:06:42.417Z,100320.66
2022-11-20T18:09:09.905Z,100311.34
2022-11-20T18:11:39.457Z,100321.63
2022-11-20T18:14:32.767Z,100311.19
2022-11-20T18:17:06.940Z,100313.09
2022-11-20T18:19:55.733Z,100315.78
2022-11-20T18:22:30.274Z,100314.84
2022-11-20T18:24:57.426Z,100316.50
2022-11-20T18:27:24.790Z,100320.66
2022-11-20T18:29:52.584Z,100320.66
2022-11-20T18:32:22.155Z,100315.50
2022-11-20T18:34:49.896Z,100319.00
2022-11-20T18:37:17.492Z,100319.78
2022-11-20T18:39:44.571Z,100324.88
2022-11-20T18:42:34.810Z,100329.25
2022-11-20T18:45:04.717Z,100328.41
2022-11-20T18:47:37.337Z,100330.94
2022-11-20T18:50:07.324Z,100321.31
2022-11-20T18:52:44.548Z,100328.09
2022-11-20T18:55:12.670Z,100334.22
2022-11-20T18:57:39.886Z,100332.53
2022-11-20T19:02:54.773Z,100335.00
2022-11-20T19:05:22.222Z,100341.94
2022-11-20T19:07:49.279Z,100336.91
2022-11-20T19:10:20.087Z,100339.50
2022-11-20T19:12:47.170Z,100342.00
2022-11-20T19:15:14.230Z,100341.94
2022-11-20T19:17:41.392Z,100341.13
2022-11-20T19:20:08.802Z,100342.06
2022-11-20T19:22:35.856Z,100327.44
2022-11-20T19:25:02.979Z,100330.94
2022-11-20T19:27:30.262Z,100336.16
2022-11-20T19:30:03.128Z,100337.94
2022-11-20T19:32:30.624Z,100326.66
2022-11-20T19:34:57.739Z,100332.81
2022-11-20T19:37:25.236Z,100326.06
2022-11-20T19:39:52.547Z,100318.34
2022-11-20T19:42:19.623Z,100319.97
2022-11-20T19:44:46.763Z,100325.19
2022-11-20T19:47:14.813Z,100308.94
2022-11-20T19:49:42.167Z,100316.22
2022-11-20T19:52:09.447Z,100317.63
2022-11-20T19:54:37.199Z,100311.47
2022-11-20T19:57:04.584Z,100310.56
2022-11-20T19:59:31.736Z,100322.34
2022-11-20T20:01:58.878Z,100314.63
2022-11-20T20:04:25.941Z,100316.38
2022-11-20T20:06:52.946Z,100316.28
2022-11-20T20:09:20.971Z,100327.38
2022-11-20T20:11:48.203Z,100338.41
2022-11-20T20:14:16.218Z,100338.41
2022-11-20T20:16:43.218Z,100343.53
2022-11-20T20:19:16.959Z,100355.31
2022-11-20T20:21:44.355Z,100359.59
2022-11-20T20:24:12.465Z,100352.06
2022-11-20T20:26:40.084Z,100357.22
2022-11-20T20:29:07.257Z,100353.72
2022-11-20T20:31:35.356Z,100368.28
2022-11-20T20:34:05.121Z,100367.41
2022-11-20T20:36:32.233Z,100347.81
2022-11-20T20:38:59.782Z,100364.44
2022-11-20T20:41:27.051Z,100357.69
2022-11-20T20:44:13.560Z,100352.66
2022-11-20T20:46:41.341Z,100361.31
2022-11-20T20:49:08.631Z,100357.00
2022-11-20T20:51:36.243Z,100362.84
2022-11-20T20:54:03.807Z,100362.91
2022-11-20T20:56:31.009Z,100367.16
2022-11-20T20:58:58.116Z,100369.63
2022-11-20T21:01:28.547Z,100377.47
2022-11-20T21:03:56.645Z,100370.66
2022-11-20T21:06:24.392Z,100362.91
2022-11-20T21:08:51.447Z,100364.53
2022-11-20T21:11:20.122Z,100365.97
2022-11-20T21:13:48.270Z,100365.31
2022-11-20T21:16:17.296Z,100368.66
2022-11-20T21:18:44.740Z,100369.47
2022-11-20T21:21:32.326Z,100365.16
2022-11-20T21:23:59.570Z,100373.09
2022-11-20T21:26:26.695Z,100378.19
2022-11-20T21:28:54.085Z,100387.53
2022-11-20T21:31:24.822Z,100390.03
2022-11-20T21:33:53.919Z,100390.03
2022-11-20T21:36:26.175Z,100382.44
2022-11-20T21:38:55.069Z,100380.63
2022-11-20T21:41:23.198Z,100383.31
2022-11-20T21:44:29.000Z,100390.16
2022-11-20T21:46:43.419Z,100392.63
2022-11-20T21:49:10.861Z,100398.59
2022-11-20T21:51:38.141Z,100402.91
2022-11-20T21:54:05.480Z,100408.94
2022-11-20T21:56:32.715Z,100408.94
2022-11-20T21:58:59.797Z,100409.81
2022-11-20T22:01:29.566Z,100409.03
2022-11-20T22:04:01.566Z,100408.94
2022-11-20T22:06:33.824Z,100420.91
2022-11-20T22:09:02.265Z,100428.53
2022-11-20T22:11:29.868Z,100427.03
2022-11-20T22:14:15.787Z,100423.69
2022-11-20T22:16:43.039Z,100436.50
2022-11-20T22:19:10.147Z,100440.00
2022-11-20T22:21:39.344Z,100440.00
2022-11-20T22:24:06.465Z,100450.19
2022-11-20T22:26:39.938Z,100445.09
2022-11-20T22:29:10.995Z,100448.69
2022-11-20T22:31:38.034Z,100455.44
2022-11-20T22:34:05.042Z,100455.53
2022-11-20T22:36:32.445Z,100464.78
2022-11-20T22:39:02.631Z,100463.09
2022-11-20T22:41:30.112Z,100456.81
2022-11-20T22:44:02.392Z,100459.50
2022-11-20T22:46:33.181Z,100462.84
2022-11-20T22:49:02.951Z,100457.75
2022-11-20T22:51:32.819Z,100437.06
2022-11-20T22:54:00.834Z,100444.78
2022-11-20T22:56:27.929Z,100446.47
2022-11-20T22:58:55.274Z,100446.47
2022-11-20T23:01:24.110Z,100451.63
2022-11-20T23:03:56.282Z,100460.06
2022-11-20T23:06:24.228Z,100471.09
2022-11-20T23:08:51.538Z,100472.75
2022-11-20T23:11:25.167Z,100488.03
2022-11-20T23:13:58.213Z,100490.66
2022-11-20T23:16:27.728Z,100489.97
2022-11-20T23:19:00.666Z,100503.63
2022-11-20T23:21:28.468Z,100490.50
2022-11-20T23:23:57.224Z,100500.22
2022-11-20T23:26:29.580Z,100494.66
2022-11-20T23:28:57.925Z,100501.75
2022-11-20T23:31:26.213Z,100501.44
2022-11-20T23:33:53.492Z,100505.81
2022-11-20T23:36:21.237Z,100510.72
2022-11-20T23:38:48.592Z,100501.56
2022-11-20T23:41:15.752Z,100507.47
2022-11-20T23:43:42.837Z,100490.50
2022-11-20T23:46:15.242Z,100502.47
2022-11-20T23:48:44.817Z,100480.94
2022-11-20T23:51:11.942Z,100486.88
2022-11-20T23:53:38.956Z,100501.34
2022-11-20T23:56:06.238Z,100497.84
2022-11-20T23:58:35.994Z,100508.19
